Time;durP1;ratioP1;P1;durP2;ratioP2;P2;SDS_P1;SDS_P2;PMS_P1;PMS_P2;Temp;Humidity;BMP_temperature;BMP_pressure;BME280_temperature;BME280_humidity;BME280_pressure;Samples;Min_cycle;Max_cycle;Signal;HPM_P1;HPM_P2
2022/06/10 00:00:37;;;;;;;6.75;4.20;;;;;;;18.02;70.42;93162.13;5104057;28;20090;-73
2022/06/10 00:03:04;;;;;;;7.90;4.10;;;;;;;17.97;70.48;93170.56;5104143;28;20020;-73
2022/06/10 00:05:31;;;;;;;12.50;5.38;;;;;;;17.92;70.95;93169.00;5104193;28;20043;-74
2022/06/10 00:07:56;;;;;;;15.40;3.75;;;;;;;17.86;70.83;93161.66;5104157;28;20031;-73
2022/06/10 00:10:25;;;;;;;8.68;3.53;;;;;;;17.78;70.93;93153.47;5103754;28;20023;-73
2022/06/10 00:12:51;;;;;;;8.00;3.50;;;;;;;17.81;71.35;93158.13;5103994;28;20028;-74
2022/06/10 00:15:18;;;;;;;6.85;3.88;;;;;;;17.86;71.78;93145.47;5103891;28;20032;-73
2022/06/10 00:17:44;;;;;;;8.20;3.47;;;;;;;17.87;71.96;93155.09;5104054;28;20040;-73
2022/06/10 00:20:13;;;;;;;6.03;3.88;;;;;;;17.89;71.89;93147.41;5103865;28;20020;-73
2022/06/10 00:22:39;;;;;;;9.73;3.50;;;;;;;17.93;71.91;93158.97;5103860;28;20222;-73
2022/06/10 00:25:05;;;;;;;17.73;4.20;;;;;;;17.95;71.47;93152.09;5103696;28;20020;-73
2022/06/10 00:27:30;;;;;;;10.30;4.10;;;;;;;17.98;71.27;93155.94;5103562;28;20024;-73
2022/06/10 00:29:56;;;;;;;7.18;3.80;;;;;;;17.92;70.61;93157.44;5103664;28;20044;-73
2022/06/10 00:32:22;;;;;;;6.40;3.60;;;;;;;17.95;70.25;93154.00;5103736;28;20196;-73
2022/06/10 00:34:48;;;;;;;4.90;3.25;;;;;;;18.01;70.34;93145.19;5103587;28;20031;-74
2022/06/10 00:37:13;;;;;;;6.78;3.38;;;;;;;18.04;70.17;93146.34;5103721;28;20031;-73
2022/06/10 00:39:39;;;;;;;4.65;3.08;;;;;;;18.06;69.66;93148.66;5103415;28;20020;-74
2022/06/10 00:42:07;;;;;;;6.45;3.88;;;;;;;18.10;69.73;93142.13;5103551;28;20047;-74
2022/06/10 00:44:39;;;;;;;5.68;3.67;;;;;;;18.12;69.20;93141.78;5103287;28;20054;-74
2022/06/10 00:47:11;;;;;;;;;;;;;;;18.16;69.54;93139.88;5103899;28;20019;-79
2022/06/10 00:49:38;;;;;;;4.77;3.17;;;;;;;18.11;69.83;93137.50;5103505;28;20233;-79
2022/06/10 00:52:04;;;;;;;7.47;3.25;;;;;;;18.12;69.80;93136.38;5103475;28;20347;-79
2022/06/10 00:54:37;;;;;;;8.15;3.30;;;;;;;18.08;69.58;93130.97;5085350;28;20256;-79
2022/06/10 00:57:27;;;;;;;5.28;3.88;;;;;;;18.10;69.71;93133.28;5103307;28;20210;-79
2022/06/10 00:59:59;;;;;;;4.88;3.17;;;;;;;18.08;69.35;93132.88;5103456;28;20019;-79
2022/06/10 01:02:27;;;;;;;5.50;3.83;;;;;;;18.07;69.07;93129.41;5103340;28;20200;-79
2022/06/10 01:04:57;;;;;;;6.97;3.25;;;;;;;18.06;69.28;93141.34;5103273;28;20023;-79
2022/06/10 01:07:29;;;;;;;6.68;3.55;;;;;;;18.06;69.38;93145.97;5103079;28;20028;-79
2022/06/10 01:09:55;;;;;;;7.75;3.38;;;;;;;18.03;69.62;93144.78;5103266;28;20252;-79
2022/06/10 01:12:48;;;;;;;5.97;3.20;;;;;;;18.07;69.58;93132.09;5103041;28;20028;-78
2022/06/10 01:15:24;;;;;;;5.90;3.63;;;;;;;18.07;69.83;93142.88;5103271;28;20108;-78
2022/06/10 01:18:27;;;;;;;8.57;4.22;;;;;;;18.07;69.98;93140.19;5103063;28;20034;-79
2022/06/10 01:20:59;;;;;;;10.57;3.95;;;;;;;18.05;70.03;93129.00;5103012;28;20023;-78
2022/06/10 01:24:02;;;;;;;5.53;3.28;;;;;;;18.07;69.93;93134.78;5102933;28;20035;-78
2022/06/10 01:30:22;;;;;;;6.55;3.35;;;;;;;18.07;69.98;93131.31;5102907;28;20066;-78
2022/06/10 01:32:47;;;;;;;6.47;3.63;;;;;;;18.02;70.44;93137.88;5091353;28;20038;-78
2022/06/10 01:35:32;;;;;;;8.80;3.97;;;;;;;18.06;70.18;93133.25;5102935;28;20055;-78
2022/06/10 01:38:15;;;;;;;9.30;3.85;;;;;;;18.06;70.43;93144.03;5102591;28;20047;-79
2022/06/10 01:41:01;;;;;;;6.50;3.42;;;;;;;18.07;70.29;93145.56;5102904;28;20034;-79
2022/06/10 01:43:33;;;;;;;4.95;3.47;;;;;;;18.02;70.60;93140.56;5102700;28;20107;-79
2022/06/10 01:46:06;;;;;;;9.43;4.00;;;;;;;17.99;70.36;93146.69;5103591;28;20020;-78
2022/06/10 01:48:46;;;;;;;6.05;3.47;;;;;;;18.01;70.90;93147.09;5106878;28;20091;-78
2022/06/10 01:51:30;;;;;;;11.52;4.32;;;;;;;18.01;71.46;93139.78;5106853;28;20044;-78
2022/06/10 01:54:07;;;;;;;8.00;4.13;;;;;;;18.02;71.22;93151.34;5106870;28;20039;-78
2022/06/10 01:56:38;;;;;;;4.97;3.70;;;;;;;18.03;71.53;93147.47;5106876;28;20019;-78
2022/06/10 01:59:16;;;;;;;11.30;4.00;;;;;;;18.04;71.66;93141.72;5106600;28;20024;-78
2022/06/10 02:01:48;;;;;;;6.85;3.60;;;;;;;18.06;71.74;93151.38;5106590;28;20089;-78
2022/06/10 02:05:01;;;;;;;7.35;3.80;;;;;;;18.05;71.50;93150.56;5106838;28;20344;-79
2022/06/10 02:07:17;;;;;;;9.07;3.72;;;;;;;18.01;71.72;93149.78;5095591;28;20110;-79
2022/06/10 02:09:48;;;;;;;5.90;4.20;;;;;;;18.00;72.29;93148.25;5106504;28;20035;-79
2022/06/10 02:12:29;;;;;;;13.25;4.07;;;;;;;17.97;72.96;93157.88;5106792;28;20020;-79
2022/06/10 02:15:03;;;;;;;5.47;4.22;;;;;;;17.91;73.21;93151.28;5106502;28;20020;-80
2022/06/10 02:17:36;;;;;;;6.43;4.38;;;;;;;17.88;73.31;93146.63;5106399;28;20047;-78
2022/06/10 02:20:03;;;;;;;8.35;3.95;;;;;;;17.89;72.96;93155.50;5106191;28;20083;-79
2022/06/10 02:22:35;;;;;;;10.02;4.07;;;;;;;17.92;73.62;93154.75;5106219;28;20091;-79
2022/06/10 02:25:25;;;;;;;9.57;4.13;;;;;;;17.93;73.26;93154.38;5106294;28;20310;-80
2022/06/10 02:27:55;;;;;;;7.57;4.72;;;;;;;17.91;73.30;93158.59;5099810;28;20036;-79
2022/06/10 02:30:25;;;;;;;7.10;4.47;;;;;;;17.89;73.42;93158.19;5106093;28;20023;-79
2022/06/10 02:32:51;;;;;;;7.38;4.18;;;;;;;17.87;73.81;93165.88;5106169;28;20020;-79
2022/06/10 02:35:18;;;;;;;8.05;4.68;;;;;;;17.85;73.77;93163.56;5106238;28;20019;-79
2022/06/10 02:37:52;;;;;;;8.60;4.30;;;;;;;17.86;74.25;93164.34;5105946;28;20024;-80
2022/06/10 02:40:34;;;;;;;9.98;4.00;;;;;;;17.87;74.58;93160.47;5106009;28;20230;-78
2022/06/10 02:43:27;;;;;;;12.55;4.72;;;;;;;17.86;74.30;93164.34;5105780;28;20016;-78
2022/06/10 02:46:08;;;;;;;8.90;5.07;;;;;;;17.82;74.72;93159.66;5105707;28;20196;-79
2022/06/10 02:48:50;;;;;;;7.20;4.45;;;;;;;17.83;74.53;93165.88;5106005;28;20207;-79
2022/06/10 02:51:16;;;;;;;11.57;5.03;;;;;;;17.82;74.56;93177.75;5105727;28;20020;-79
2022/06/10 02:53:42;;;;;;;7.53;5.70;;;;;;;17.84;74.86;93173.56;5105518;28;20027;-78
2022/06/10 02:56:24;;;;;;;11.93;4.38;;;;;;;17.86;75.10;93172.44;5105910;28;20016;-78
2022/06/10 03:01:48;;;;;;;7.32;4.78;;;;;;;17.81;75.12;93168.13;5105375;28;20059;-78
2022/06/10 03:04:31;;;;;;;6.53;4.90;;;;;;;17.75;75.03;93175.78;5087425;28;20345;-78
2022/06/10 03:07:15;;;;;;;7.65;4.50;;;;;;;17.80;74.98;93172.75;5087406;28;20028;-78
2022/06/10 03:10:09;;;;;;;9.43;5.25;;;;;;;17.79;75.11;93168.50;5105406;28;20032;-78
2022/06/10 03:12:47;;;;;;;7.72;4.28;;;;;;;17.78;75.16;93175.03;5087241;28;20289;-78
2022/06/10 03:15:20;;;;;;;6.70;4.97;;;;;;;17.76;75.64;93173.88;5105141;28;20016;-78
2022/06/10 03:18:30;;;;;;;9.73;4.95;;;;;;;17.77;75.49;93176.19;5105443;28;20020;-79
2022/06/10 03:21:07;;;;;;;6.68;4.50;;;;;;;17.78;75.17;93180.44;5094404;28;20036;-78
2022/06/10 03:23:46;;;;;;;7.30;4.25;;;;;;;17.80;75.55;93171.97;5087154;28;20047;-78
2022/06/10 03:26:26;;;;;;;9.00;3.88;;;;;;;17.80;75.37;93172.75;5105068;28;20066;-78
2022/06/10 03:29:17;;;;;;;7.30;3.53;;;;;;;17.82;74.65;93175.84;5105064;28;20043;-78
2022/06/10 03:31:50;;;;;;;8.95;3.92;;;;;;;17.82;74.99;93181.22;5104964;28;20024;-78
2022/06/10 03:34:26;;;;;;;13.77;4.80;;;;;;;17.83;75.21;93171.25;5104929;28;20016;-78
2022/06/10 03:36:52;;;;;;;10.15;6.00;;;;;;;17.82;75.21;93175.84;5104914;28;20098;-78
2022/06/10 03:39:21;;;;;;;12.43;4.72;;;;;;;17.82;75.00;93175.84;5104988;28;20314;-78
2022/06/10 03:42:16;;;;;;;8.48;4.55;;;;;;;17.80;73.90;93178.13;5104881;28;20057;-78
2022/06/10 03:44:42;;;;;;;6.65;4.30;;;;;;;17.71;75.03;93179.59;5103668;28;20048;-78
2022/06/10 03:47:15;;;;;;;6.68;4.30;;;;;;;17.65;75.86;93184.59;5104632;28;20024;-78
2022/06/10 03:49:59;;;;;;;8.13;4.15;;;;;;;17.63;76.12;93178.78;5104470;28;20069;-78
2022/06/10 03:52:30;;;;;;;8.45;4.88;;;;;;;17.63;76.42;93187.66;5104687;28;20020;-79
2022/06/10 03:54:55;;;;;;;7.50;4.70;;;;;;;17.65;76.63;93198.06;5104434;28;20091;-79
2022/06/10 03:57:21;;;;;;;8.25;4.28;;;;;;;17.68;76.61;93193.84;5104609;28;20024;-80
2022/06/10 03:59:47;;;;;;;7.72;4.13;;;;;;;17.70;76.59;93197.69;5104499;28;20016;-79
2022/06/10 04:02:13;;;;;;;9.25;4.85;;;;;;;17.70;76.34;93197.69;5104329;28;20020;-79
2022/06/10 04:04:39;;;;;;;7.68;5.22;;;;;;;17.71;76.63;93196.56;5104294;28;20020;-79
2022/06/10 04:07:11;;;;;;;9.05;5.65;;;;;;;17.73;76.63;93202.34;5104142;28;20028;-80
2022/06/10 04:09:36;;;;;;;9.20;6.03;;;;;;;17.76;76.85;93204.28;5103953;28;20028;-79
2022/06/10 04:12:02;;;;;;;10.50;5.63;;;;;;;17.82;77.56;93205.47;5104264;28;20031;-80
2022/06/10 04:14:28;;;;;;;12.25;5.45;;;;;;;17.87;77.23;93203.63;5104175;28;20023;-80
2022/06/10 04:16:54;;;;;;;8.23;5.53;;;;;;;17.92;76.90;93208.66;5103909;28;20031;-80
2022/06/10 04:19:19;;;;;;;7.28;5.45;;;;;;;17.93;76.89;93207.50;5104532;28;20090;-80
2022/06/10 04:21:45;;;;;;;6.68;4.75;;;;;;;17.93;76.69;93207.50;5104154;28;20024;-80
2022/06/10 04:24:10;;;;;;;6.22;4.55;;;;;;;17.89;76.55;93194.03;5104142;28;20023;-80
2022/06/10 04:26:36;;;;;;;9.27;6.00;;;;;;;17.96;76.82;93195.97;5103967;28;20027;-78
2022/06/10 04:29:02;;;;;;;6.35;4.35;;;;;;;17.97;76.50;93192.91;5103763;28;20226;-80
2022/06/10 04:31:27;;;;;;;11.52;5.60;;;;;;;18.03;76.05;93193.31;5103799;28;20095;-79
2022/06/10 04:33:53;;;;;;;8.02;5.25;;;;;;;18.04;75.32;93192.19;5103638;28;20329;-79
2022/06/10 04:36:19;;;;;;;9.85;4.40;;;;;;;18.03;75.75;93196.00;5103893;28;20027;-81
2022/06/10 04:38:45;;;;;;;8.73;4.90;;;;;;;18.06;75.64;93203.38;5103765;28;20012;-79
2022/06/10 04:41:12;;;;;;;11.52;4.35;;;;;;;18.08;75.14;93192.97;5085700;28;20336;-80
2022/06/10 04:43:38;;;;;;;9.82;5.20;;;;;;;18.14;74.34;93204.19;5103329;28;20338;-81
2022/06/10 04:46:06;;;;;;;9.68;6.07;;;;;;;18.09;75.39;93199.91;5103557;28;20027;-80
2022/06/10 04:48:32;;;;;;;14.95;6.80;;;;;;;18.04;76.43;93201.03;5103342;28;20016;-81
2022/06/10 04:50:58;;;;;;;16.95;7.55;;;;;;;18.00;77.46;93208.34;5103661;28;20084;-82
2022/06/10 04:53:24;;;;;;;12.27;5.90;;;;;;;18.02;77.61;93210.66;5103553;28;20028;-82
2022/06/10 04:55:50;;;;;;;8.32;5.35;;;;;;;18.05;77.04;93204.50;5103451;28;20046;-82
2022/06/10 04:58:15;;;;;;;8.48;5.40;;;;;;;18.10;76.57;93212.25;5103416;28;20095;-82
2022/06/10 05:00:45;;;;;;;8.10;5.63;;;;;;;18.14;76.19;93209.59;5103333;28;20319;-79
2022/06/10 05:03:11;;;;;;;9.45;5.75;;;;;;;18.19;75.82;93220.78;5103005;28;20377;-77
2022/06/10 05:05:38;;;;;;;7.30;5.03;;;;;;;18.28;75.77;93223.16;5103623;28;20207;-79
2022/06/10 05:08:05;;;;;;;15.80;5.93;;;;;;;18.35;75.98;93217.00;5103292;28;20199;-76
2022/06/10 05:10:31;;;;;;;11.57;6.07;;;;;;;18.41;75.21;93216.28;5103025;28;20027;-77
2022/06/10 05:12:56;;;;;;;8.73;4.82;;;;;;;18.39;75.57;93215.88;5103080;28;20092;-79
2022/06/10 05:15:22;;;;;;;9.38;5.00;;;;;;;18.49;75.21;93219.78;5102931;28;20028;-71
2022/06/10 05:17:50;;;;;;;10.77;4.72;;;;;;;18.59;75.64;93229.09;5102987;28;20028;-71
2022/06/10 05:20:22;;;;;;;7.22;4.45;;;;;;;18.67;74.90;93224.50;5102561;28;20017;-71
2022/06/10 05:22:48;;;;;;;8.13;4.95;;;;;;;18.77;74.64;93226.47;5102757;28;20020;-71
2022/06/10 05:25:14;;;;;;;13.25;4.78;;;;;;;18.80;74.19;93231.88;5102622;28;20030;-71
2022/06/10 05:27:40;;;;;;;10.43;5.63;;;;;;;18.79;73.98;93230.34;5102723;28;20024;-71
2022/06/10 05:30:07;;;;;;;7.28;5.85;;;;;;;18.87;73.29;93238.47;5102575;28;20028;-71
2022/06/10 05:32:32;;;;;;;11.07;5.72;;;;;;;18.90;73.28;93235.03;5102772;28;20020;-71
2022/06/10 05:34:58;;;;;;;10.10;6.43;;;;;;;18.98;73.02;93237.34;5102768;28;20364;-71
2022/06/10 05:37:26;;;;;;;16.60;10.23;;;;;;;19.03;73.36;93242.41;5102517;28;20044;-71
2022/06/10 05:39:52;;;;;;;15.63;10.45;;;;;;;19.06;73.03;93237.38;5102839;28;20192;-71
2022/06/10 05:42:18;;;;;;;12.27;8.98;;;;;;;19.11;72.72;93245.09;5102407;28;20031;-71
2022/06/10 05:44:45;;;;;;;18.27;8.10;;;;;;;19.22;72.54;93233.19;5102346;28;20579;-71
2022/06/10 05:47:24;;;;;;;9.88;6.65;;;;;;;19.26;73.01;93235.13;5102494;28;20073;-71
2022/06/10 05:49:53;;;;;;;8.13;5.22;;;;;;;19.29;72.88;93235.13;5102512;28;20027;-71
2022/06/10 05:52:21;;;;;;;9.88;5.75;;;;;;;19.44;72.82;93234.00;5102627;28;20016;-71
2022/06/10 05:54:48;;;;;;;9.93;5.85;;;;;;;19.58;72.77;93224.34;5102458;28;20195;-71
2022/06/10 05:57:14;;;;;;;12.63;5.07;;;;;;;19.69;72.32;93230.53;5102383;28;20024;-71
2022/06/10 05:59:41;;;;;;;8.07;4.70;;;;;;;19.78;71.29;93239.09;5102392;28;20215;-71
2022/06/10 06:02:09;;;;;;;7.47;4.70;;;;;;;19.91;70.43;93246.81;5102559;28;20016;-71
2022/06/10 06:04:34;;;;;;;9.25;5.38;;;;;;;20.03;70.20;93239.06;5102329;28;20267;-71
2022/06/10 06:07:00;;;;;;;6.60;4.55;;;;;;;20.09;70.25;93242.16;5102452;28;20020;-71
2022/06/10 06:09:26;;;;;;;9.05;4.70;;;;;;;20.15;70.22;93242.50;5102279;28;20069;-71
2022/06/10 06:11:54;;;;;;;8.95;5.20;;;;;;;20.19;69.83;93246.78;5102526;28;20242;-71
2022/06/10 06:14:21;;;;;;;7.00;4.40;;;;;;;20.21;69.50;93244.47;5102594;28;20085;-70
2022/06/10 06:16:53;;;;;;;15.27;4.50;;;;;;;20.28;68.88;93245.59;5102469;28;20322;-69
2022/06/10 06:19:19;;;;;;;9.68;4.85;;;;;;;20.31;68.92;93234.00;5100869;28;20057;-69
2022/06/10 06:21:45;;;;;;;6.72;4.53;;;;;;;20.32;68.05;93249.09;5100964;28;20028;-70
2022/06/10 06:24:10;;;;;;;7.50;5.18;;;;;;;20.34;68.50;93246.75;5102118;28;20222;-69
2022/06/10 06:26:36;;;;;;;12.25;5.45;;;;;;;20.33;68.34;93262.19;5102257;28;20091;-71
2022/06/10 06:29:02;;;;;;;9.40;6.22;;;;;;;20.31;68.27;93267.22;5102108;28;20028;-70
2022/06/10 06:31:28;;;;;;;8.68;6.32;;;;;;;20.31;68.50;93271.88;5102038;28;20024;-70
2022/06/10 06:33:53;;;;;;;13.98;7.35;;;;;;;20.26;68.21;93273.06;5105825;28;20028;-70
2022/06/10 06:36:22;;;;;;;10.07;6.93;;;;;;;20.16;68.90;93263.78;5105808;28;20016;-70
2022/06/10 06:38:48;;;;;;;12.75;7.05;;;;;;;20.10;69.44;93265.31;5105755;28;20265;-70
2022/06/10 06:41:14;;;;;;;10.13;6.05;;;;;;;20.06;69.74;93266.50;5105688;28;20043;-70
2022/06/10 06:43:40;;;;;;;9.65;6.80;;;;;;;19.98;69.69;93263.03;5105432;28;20040;-70
2022/06/10 06:46:06;;;;;;;9.70;6.22;;;;;;;19.95;70.00;93269.22;5105645;28;20203;-70
2022/06/10 06:48:31;;;;;;;11.52;6.10;;;;;;;19.96;69.67;93276.16;5105593;28;20031;-70
2022/06/10 06:50:57;;;;;;;14.50;6.60;;;;;;;19.89;70.26;93268.81;5105528;28;20263;-70
2022/06/10 06:53:22;;;;;;;7.90;5.82;;;;;;;19.91;69.92;93273.84;5105743;28;20883;-70
2022/06/10 06:55:48;;;;;;;9.48;6.50;;;;;;;19.91;70.10;93274.63;5105249;28;20065;-70
2022/06/10 06:58:16;;;;;;;8.93;6.50;;;;;;;19.94;70.45;93267.66;5105228;28;20306;-70
2022/06/10 07:00:42;;;;;;;9.32;5.63;;;;;;;20.01;69.73;93264.97;5105457;28;20027;-70
2022/06/10 07:03:08;;;;;;;17.05;6.65;;;;;;;20.02;69.35;93261.84;5105305;28;20217;-70
2022/06/10 07:05:35;;;;;;;10.68;5.65;;;;;;;20.06;69.56;93263.78;5105276;28;20036;-70
2022/06/10 07:08:01;;;;;;;9.10;6.15;;;;;;;20.14;69.07;93266.09;5105039;28;20035;-70
2022/06/10 07:10:26;;;;;;;8.80;5.38;;;;;;;20.24;68.20;93275.38;5105268;28;20311;-70
2022/06/10 07:12:52;;;;;;;10.90;5.35;;;;;;;20.28;67.89;93275.38;5105284;28;20031;-70
2022/06/10 07:15:18;;;;;;;9.65;6.13;;;;;;;20.25;68.55;93268.78;5105071;28;20080;-70
2022/06/10 07:17:44;;;;;;;10.82;5.47;;;;;;;20.28;67.31;93265.31;5104766;28;20019;-70
2022/06/10 07:20:19;;;;;;;9.77;5.97;;;;;;;20.21;67.94;93271.50;5104925;28;20210;-69
2022/06/10 07:22:44;;;;;;;9.77;5.45;;;;;;;20.24;67.89;93273.44;5105000;28;20036;-70
2022/06/10 07:25:10;;;;;;;7.90;5.50;;;;;;;20.29;67.35;93271.50;5104756;28;20019;-69
2022/06/10 07:27:36;;;;;;;9.50;5.13;;;;;;;20.34;67.22;93276.53;5104811;28;20023;-69
2022/06/10 07:30:04;;;;;;;10.18;4.95;;;;;;;20.41;67.01;93273.78;5104810;28;20035;-70
2022/06/10 07:32:29;;;;;;;10.00;6.05;;;;;;;20.47;67.26;93282.28;5104682;28;20019;-70
2022/06/10 07:34:55;;;;;;;7.18;5.22;;;;;;;20.49;66.48;93280.75;5104560;28;20031;-69
2022/06/10 07:37:20;;;;;;;9.57;5.00;;;;;;;20.50;66.75;93284.25;5104677;28;20095;-69
2022/06/10 07:39:46;;;;;;;11.10;6.30;;;;;;;20.50;66.12;93271.47;5104685;28;20045;-69
2022/06/10 07:42:11;;;;;;;11.43;5.88;;;;;;;20.52;66.63;93274.56;5104677;28;20044;-70
2022/06/10 07:44:38;;;;;;;14.02;5.85;;;;;;;20.58;66.83;93277.66;5085815;28;20320;-69
2022/06/10 07:47:07;;;;;;;10.77;5.40;;;;;;;20.64;66.45;93271.47;5104517;28;20090;-69
2022/06/10 07:49:33;;;;;;;13.75;5.93;;;;;;;20.70;66.60;93276.47;5104386;28;20318;-69
2022/06/10 07:51:59;;;;;;;9.75;5.60;;;;;;;20.79;66.24;93269.47;5104547;28;20063;-69
2022/06/10 07:54:24;;;;;;;9.77;5.78;;;;;;;20.83;66.31;93272.19;5104673;28;20024;-69
2022/06/10 07:56:50;;;;;;;8.77;5.30;;;;;;;20.94;65.78;93285.69;5104327;28;20134;-69
2022/06/10 07:59:16;;;;;;;9.10;5.25;;;;;;;20.98;65.29;93273.66;5104231;28;20028;-68
2022/06/10 08:01:42;;;;;;;11.77;6.22;;;;;;;21.10;65.40;93280.59;5104150;28;20199;-68
2022/06/10 08:04:08;;;;;;;18.52;6.35;;;;;;;21.20;65.57;93285.19;5104194;28;20050;-69
2022/06/10 08:06:37;;;;;;;10.60;5.78;;;;;;;21.33;64.87;93274.69;5104011;28;20218;-68
2022/06/10 08:09:03;;;;;;;6.93;5.22;;;;;;;21.41;64.51;93272.69;5103945;28;20032;-69
2022/06/10 08:11:28;;;;;;;6.72;5.15;;;;;;;21.45;64.38;93284.31;5103944;28;20044;-68
2022/06/10 08:13:54;;;;;;;9.52;5.63;;;;;;;21.58;64.02;93295.50;5103955;28;20035;-68
2022/06/10 08:16:19;;;;;;;8.02;5.30;;;;;;;21.68;63.96;93294.66;5103874;28;20020;-69
2022/06/10 08:18:46;;;;;;;9.23;5.93;;;;;;;21.76;63.01;93288.00;5103908;28;20243;-68
2022/06/10 08:23:56;;;;;;;9.13;5.47;;;;;;;21.99;61.77;93286.69;5103969;28;20276;-68
2022/06/10 08:26:25;;;;;;;14.48;5.40;;;;;;;22.10;61.79;93281.16;5103717;28;20043;-68
2022/06/10 08:28:51;;;;;;;11.23;5.25;;;;;;;22.23;61.39;93284.94;5103647;28;20068;-68
2022/06/10 08:31:17;;;;;;;17.23;5.15;;;;;;;22.31;60.27;93291.09;5103696;28;20087;-69
2022/06/10 08:33:42;;;;;;;13.15;6.57;;;;;;;22.42;59.72;93297.22;5103474;28;20027;-68
2022/06/10 08:36:09;;;;;;;13.20;5.13;;;;;;;22.39;58.96;93295.31;5103607;28;20071;-69
2022/06/10 08:38:35;;;;;;;13.85;4.85;;;;;;;22.48;57.52;93298.31;5103626;28;20192;-69
2022/06/10 08:41:15;;;;;;;9.93;4.20;;;;;;;22.67;58.05;93304.34;5103636;28;20031;-68
2022/06/10 08:43:55;;;;;;;15.25;4.03;;;;;;;22.80;57.28;93297.25;5103380;28;20119;-69
2022/06/10 08:46:58;;;;;;;9.02;4.15;;;;;;;23.05;57.08;93307.09;5103317;28;20103;-69
2022/06/10 08:49:40;;;;;;;10.30;3.85;;;;;;;23.25;54.46;93309.97;5103518;28;20028;-69
2022/06/10 08:52:21;;;;;;;12.45;3.40;;;;;;;23.37;52.75;93312.16;5103208;28;20084;-69
2022/06/10 08:55:34;;;;;;;7.10;4.55;;;;;;;23.53;52.37;93303.38;5103036;28;20077;-69
2022/06/10 08:58:13;;;;;;;16.17;3.97;;;;;;;23.63;51.79;93308.69;5071237;28;20235;-68
2022/06/10 09:00:41;;;;;;;4.47;3.20;;;;;;;23.56;51.21;93314.22;5103196;28;20023;-68
2022/06/10 09:03:12;;;;;;;5.43;3.00;;;;;;;23.54;51.62;93311.13;5103149;28;20032;-69
2022/06/10 09:05:43;;;;;;;7.30;3.35;;;;;;;23.63;51.27;93311.41;5103205;28;20074;-69
2022/06/10 09:08:35;;;;;;;5.13;3.13;;;;;;;23.67;51.46;93311.38;5103126;28;20230;-70
2022/06/10 09:11:25;;;;;;;8.07;4.25;;;;;;;23.71;51.75;93314.81;5098271;28;20051;-70
2022/06/10 09:14:00;;;;;;;6.57;4.75;;;;;;;23.71;51.52;93314.03;5102782;28;20027;-70
2022/06/10 09:16:40;;;;;;;10.63;4.90;;;;;;;23.66;51.88;93312.53;5102922;28;20252;-70
2022/06/10 09:19:24;;;;;;;11.82;5.25;;;;;;;23.61;51.65;93315.72;5102839;28;20032;-70
2022/06/10 09:22:16;;;;;;;8.45;4.70;;;;;;;23.48;51.92;93312.00;5102888;28;20028;-70
2022/06/10 09:25:10;;;;;;;8.25;5.15;;;;;;;23.40;52.22;93312.09;5102768;28;20039;-70
2022/06/10 09:27:40;;;;;;;9.07;5.00;;;;;;;23.36;53.75;93321.47;5102427;28;20036;-70
2022/06/10 09:30:09;;;;;;;9.52;5.38;;;;;;;23.32;54.14;93318.03;5101987;28;20235;-70
2022/06/10 09:32:50;;;;;;;6.40;4.05;;;;;;;23.26;53.44;93323.16;5102183;28;20028;-70
2022/06/10 09:35:35;;;;;;;9.23;3.03;;;;;;;23.11;52.05;93319.06;5084593;28;20318;-70
2022/06/10 09:38:39;;;;;;;3.95;3.10;;;;;;;22.94;54.97;93323.47;5102599;28;20027;-69
2022/06/10 09:41:52;;;;;;;5.68;3.33;;;;;;;22.66;54.98;93328.03;5102774;28;20318;-69
2022/06/10 09:44:40;;;;;;;8.27;3.60;;;;;;;22.36;57.31;93323.25;5098542;28;20036;-69
2022/06/10 09:47:28;;;;;;;4.60;3.42;;;;;;;22.12;59.16;93324.97;5102620;28;20028;-69
2022/06/10 09:50:17;;;;;;;6.65;4.40;;;;;;;21.94;59.92;93335.94;5102432;28;20086;-70
2022/06/10 09:52:54;;;;;;;17.30;5.82;;;;;;;21.74;60.92;93350.03;5102594;28;20102;-69
2022/06/10 09:55:44;;;;;;;27.40;8.05;;;;;;;21.55;63.07;93351.25;5102252;28;20057;-69
2022/06/10 09:58:30;;;;;;;11.43;4.95;;;;;;;21.18;63.10;93362.63;5102318;28;20024;-70
2022/06/10 10:01:04;;;;;;;8.00;3.50;;;;;;;21.01;62.24;93381.25;5102589;28;20337;-70
2022/06/10 10:03:43;;;;;;;13.98;6.15;;;;;;;20.91;64.12;93390.16;5102402;28;20020;-70
2022/06/10 10:07:00;;;;;;;8.00;3.10;;;;;;;20.45;63.13;93377.41;5102357;28;20030;-69
2022/06/10 10:09:44;;;;;;;6.47;2.63;;;;;;;19.50;64.72;93384.94;5089069;28;20032;-70
2022/06/10 10:12:12;;;;;;;8.50;2.90;;;;;;;19.08;67.82;93373.59;5106476;28;20024;-72
2022/06/10 10:14:41;;;;;;;3.83;2.10;;;;;;;18.69;68.29;93373.34;5106329;28;20030;-71
2022/06/10 10:17:31;;;;;;;5.80;2.50;;;;;;;18.32;70.86;93371.50;5106265;28;20073;-71
2022/06/10 10:20:08;;;;;;;11.35;4.20;;;;;;;18.03;71.62;93376.66;5106424;28;20051;-70
2022/06/10 10:23:00;;;;;;;6.43;2.50;;;;;;;17.80;70.41;93372.19;5105933;28;20095;-71
2022/06/10 10:25:26;;;;;;;8.43;4.17;;;;;;;17.59;73.84;93378.16;5106008;28;20028;-71
2022/06/10 10:27:53;;;;;;;10.82;5.35;;;;;;;17.53;75.20;93371.53;5106006;28;20262;-71
2022/06/10 10:30:27;;;;;;;11.68;5.13;;;;;;;17.49;77.52;93378.03;5106079;28;20040;-71
2022/06/10 10:33:03;;;;;;;12.70;5.10;;;;;;;17.54;79.08;93380.41;5105942;28;20024;-71
2022/06/10 10:35:48;;;;;;;7.85;4.75;;;;;;;17.76;81.31;93371.38;5105871;28;20228;-71
2022/06/10 10:38:40;;;;;;;12.85;5.35;;;;;;;17.97;78.79;93380.84;5105637;28;20031;-71
2022/06/10 10:41:37;;;;;;;13.97;5.83;;;;;;;18.20;79.69;93378.00;5105832;28;20028;-71
2022/06/10 10:44:07;;;;;;;7.18;4.70;;;;;;;18.35;77.34;93371.56;5061771;28;20340;-71
2022/06/10 10:46:37;;;;;;;5.75;4.13;;;;;;;18.51;77.39;93376.69;5085280;28;20315;-70
2022/06/10 10:49:18;;;;;;;7.20;4.35;;;;;;;18.59;75.50;93377.53;5085186;28;20092;-71
2022/06/10 10:51:47;;;;;;;7.80;4.55;;;;;;;18.66;75.10;93377.56;5085129;28;20025;-70
2022/06/10 10:54:22;;;;;;;6.40;3.83;;;;;;;18.72;74.12;93380.69;5085220;28;20040;-70
2022/06/10 10:56:49;;;;;;;6.53;4.35;;;;;;;18.74;72.96;93367.59;5085056;28;20012;-70
2022/06/10 10:59:25;;;;;;;5.75;4.43;;;;;;;18.79;73.14;93364.56;5085202;28;20311;-70
2022/06/10 11:01:54;;;;;;;5.65;4.00;;;;;;;18.83;70.89;93365.38;5084788;28;20096;-70
2022/06/10 11:04:40;;;;;;;7.97;4.75;;;;;;;18.84;71.65;93364.19;5085083;28;20043;-70
2022/06/10 11:07:14;;;;;;;6.65;5.10;;;;;;;18.92;73.88;93357.69;5084798;28;20417;-70
2022/06/10 11:10:07;;;;;;;7.68;4.82;;;;;;;19.10;75.95;93363.19;5084800;28;20040;-70
2022/06/10 11:12:33;;;;;;;6.40;3.78;;;;;;;19.29;75.80;93370.19;5082135;28;20107;-70
2022/06/10 11:15:03;;;;;;;6.40;4.00;;;;;;;19.49;70.44;93362.56;5084942;28;20024;-69
2022/06/10 11:17:30;;;;;;;8.38;3.63;;;;;;;19.70;69.76;93359.16;5083634;28;20032;-69
2022/06/10 11:20:01;;;;;;;5.47;3.63;;;;;;;19.84;69.28;93356.53;5083642;28;20264;-70
2022/06/10 11:22:30;;;;;;;8.27;4.67;;;;;;;20.04;69.46;93362.31;5084853;28;20032;-70
2022/06/10 11:25:22;;;;;;;8.00;4.38;;;;;;;20.18;67.53;93358.84;5084840;28;20029;-70
2022/06/10 11:27:50;;;;;;;7.18;3.97;;;;;;;20.18;68.00;93355.38;5084662;28;20024;-70
2022/06/10 11:30:21;;;;;;;7.82;4.05;;;;;;;20.31;68.77;93355.75;5084193;28;20047;-71
2022/06/10 11:32:47;;;;;;;6.93;4.17;;;;;;;20.46;66.39;93354.63;5084452;28;20028;-70
2022/06/10 11:35:23;;;;;;;6.30;3.97;;;;;;;20.51;66.48;93350.75;5084388;28;20055;-70
2022/06/10 11:38:04;;;;;;;7.25;3.97;;;;;;;20.49;65.87;93358.47;5084259;28;20239;-71
2022/06/10 11:40:53;;;;;;;5.72;4.22;;;;;;;20.61;66.68;93358.88;5084082;28;20100;-70
2022/06/10 11:43:31;;;;;;;7.60;4.35;;;;;;;20.71;66.16;93345.72;5084125;28;20058;-71
2022/06/10 11:46:24;;;;;;;7.95;4.47;;;;;;;20.86;67.48;93344.50;5083024;28;20049;-70
2022/06/10 11:49:08;;;;;;;10.13;4.85;;;;;;;21.04;66.26;93350.69;5083859;28;20028;-70
2022/06/10 11:52:03;;;;;;;6.57;4.60;;;;;;;21.35;67.17;93347.44;5083763;28;20035;-70
2022/06/10 11:54:35;;;;;;;5.53;4.03;;;;;;;21.65;63.77;93349.66;5084030;28;20024;-70
2022/06/10 12:00:22;;;;;;;5.22;4.53;;;;;;;22.37;62.52;93343.81;5084071;28;20349;-70
2022/06/10 12:03:19;;;;;;;7.78;5.20;;;;;;;22.65;62.15;93348.22;5083884;28;20311;-71
2022/06/10 12:05:52;;;;;;;7.35;5.10;;;;;;;22.74;62.03;93332.22;5083756;28;20028;-71
2022/06/10 12:08:31;;;;;;;8.00;4.50;;;;;;;22.85;61.47;93340.25;5083923;28;20025;-71
2022/06/10 12:11:25;;;;;;;6.40;4.13;;;;;;;23.08;59.40;93333.44;5083731;28;20032;-71